CST,Max TemperatureF,Mean TemperatureF,Min TemperatureF,Max Dew PointF,MeanDew PointF,Min DewpointF,Max Humidity, Mean Humidity, Min Humidity, Max Sea Level PressureIn, Mean Sea Level PressureIn, Min Sea Level PressureIn, Max VisibilityMiles, Mean VisibilityMiles, Min VisibilityMiles, Max Wind SpeedMPH, Mean Wind SpeedMPH, Max Gust SpeedMPH,PrecipitationIn, CloudCover, Events, WindDirDegrees
2013-11-1,52,43,35,40,38,35,99,84,63,29.88,29.65,29.45,10,9,5,14,10,21,0.00,5,Rain,291
2013-11-2,50,40,30,37,34,29,100,82,55,30.08,30.03,29.89,10,9,3,10,5,,0.00,2,,288
2013-11-3,55,45,35,36,33,32,90,66,41,30.08,29.94,29.83,10,10,10,29,10,38,0.00,1,,136
2013-11-4,48,40,33,44,37,30,95,79,61,30.16,29.91,29.78,10,10,5,21,10,25,0.17,3,Rain,212
2013-11-5,39,32,26,33,30,25,99,90,64,30.24,30.15,30.05,10,7,0,17,3,24,0.00,5,Snow,347
2013-11-6,33,27,21,32,25,19,99,87,72,30.17,30.11,30.05,10,10,3,14,9,20,0.19,3,Snow,271
2013-11-7,35,26,16,30,24,14,99,93,78,30.25,30.20,30.16,10,6,0,15,5,18,0.02,4,Fog,256
2013-11-8,41,30,18,38,29,17,99,85,65,30.19,29.87,29.60,10,9,3,18,6,22,0.04,4,Rain,147
2013-11-9,43,38,34,39,33,27,95,79,64,30.25,29.96,29.66,10,10,10,26,17,36,0.00,7,,282
2013-11-10,37,33,29,33,30,28,94,83,74,30.34,30.24,30.11,10,10,10,15,8,24,0.00,6,,245
2013-11-11,36,25,14,32,13,8,90,67,52,30.74,30.47,30.14,10,10,3,22,15,30,0.00,3,Snow,332
2013-11-12,29,18,8,16,11,6,89,73,46,30.78,30.66,30.42,10,10,10,12,6,16,0.00,0,,234
2013-11-13,52,36,20,36,26,15,87,71,49,30.40,30.05,29.87,10,10,10,15,7,24,0.00,0,,193
2013-11-14,54,42,30,41,34,29,96,82,57,29.87,29.82,29.76,10,10,10,16,4,20,0.00,3,,252
2013-11-15,56,42,27,40,35,27,99,81,52,29.83,29.75,29.60,10,10,5,12,3,21,0.00,0,,166
2013-11-16,48,43,38,48,42,35,100,96,83,29.58,29.38,29.23,10,5,0,12,7,16,0.06,4,Fog-Rain,150
2013-11-17,43,37,31,41,35,25,100,88,79,29.87,29.53,29.30,10,9,1,28,13,40,0.00,7,,286
2013-11-18,35,28,22,26,23,20,91,77,59,30.24,30.11,29.88,10,10,10,24,15,33,0.00,4,,289
2013-11-19,48,34,21,33,28,20,92,72,53,30.23,30.01,29.85,10,10,10,21,10,28,0.00,0,,134
2013-11-20,46,39,32,34,32,30,99,72,59,30.02,29.89,29.83,10,9,3,17,11,29,0.00,4,,146
2013-11-21,35,28,20,35,21,13,99,80,63,30.54,30.30,30.02,10,8,2,23,12,29,0.00,8,Snow,320
2013-11-22,37,23,9,17,8,3,87,57,24,30.66,30.54,30.45,10,10,7,24,12,34,0.00,2,,286
2013-11-23,17,10,2,4,1,-1,85,71,53,30.85,30.77,30.68,10,10,10,16,11,24,0.00,0,,307
2013-11-24,37,20,3,18,10,-1,84,62,40,30.68,30.29,29.96,10,10,10,23,8,30,0.00,0,,181
2013-11-25,39,33,27,29,24,18,88,69,56,30.11,30.00,29.90,10,10,10,23,14,28,0.00,5,,273
2013-11-26,29,19,9,21,9,4,83,63,47,30.39,30.27,30.11,10,10,10,25,17,36,0.00,4,Snow,316
2013-11-27,24,13,2,12,7,-1,89,72,51,30.38,30.21,30.03,10,10,10,16,5,21,0.00,3,,144
2013-11-28,27,16,5,15,11,2,88,69,53,30.49,30.30,30.04,10,10,10,18,6,22,0.00,3,,315
2013-11-29,33,19,5,20,14,2,89,73,54,30.49,30.32,30.08,10,10,10,16,4,23,0.00,1,,146
2013-11-30,42,29,16,29,23,15,96,78,58,30.18,30.07,30.02,10,9,5,13,5,16,0.00,2,,288